Time;durP1;ratioP1;P1;durP2;ratioP2;P2;SDS_P1;SDS_P2;PMS_P1;PMS_P2;Temp;Humidity;BMP_temperature;BMP_pressure;BME280_temperature;BME280_humidity;BME280_pressure;Samples;Min_cycle;Max_cycle;Signal;HPM_P1;HPM_P2
2022/10/30 00:01:58;;;;;;;263.83;58.83;;;12.50;99.90;;;;;;5075668;28;20045;-52
2022/10/30 00:04:24;;;;;;;209.60;51.28;;;12.60;99.90;;;;;;5085190;28;20037;-48
2022/10/30 00:06:49;;;;;;;339.33;56.88;;;12.70;99.90;;;;;;5064849;28;20476;-48
2022/10/30 00:09:15;;;;;;;251.45;51.17;;;12.70;99.90;;;;;;5066834;28;20044;-49
2022/10/30 00:11:41;;;;;;;145.65;49.85;;;12.60;99.90;;;;;;5068428;28;20056;-51
2022/10/30 00:14:08;;;;;;;187.52;50.35;;;12.60;99.90;;;;;;5066825;28;20032;-52
2022/10/30 00:16:33;;;;;;;163.88;51.08;;;12.50;99.90;;;;;;5067406;28;20020;-52
2022/10/30 00:18:59;;;;;;;289.40;55.55;;;12.40;99.90;;;;;;5069234;28;20025;-53
2022/10/30 00:21:25;;;;;;;198.02;51.33;;;12.40;99.90;;;;;;5063075;28;20037;-52
2022/10/30 00:23:52;;;;;;;271.40;52.78;;;12.30;99.90;;;;;;5038486;28;20445;-49
2022/10/30 00:26:20;;;;;;;278.83;55.15;;;12.40;99.90;;;;;;5063542;28;20044;-50
2022/10/30 00:28:53;;;;;;;169.13;54.63;;;12.50;99.90;;;;;;5058098;28;20035;-49
2022/10/30 00:31:19;;;;;;;164.13;52.60;;;12.60;99.90;;;;;;5067386;28;20032;-49
2022/10/30 00:33:54;;;;;;;151.00;57.50;;;12.50;99.90;;;;;;5066673;28;20063;-52
2022/10/30 00:36:21;;;;;;;218.30;53.97;;;12.60;99.90;;;;;;5059483;28;20376;-50
2022/10/30 00:38:47;;;;;;;175.98;58.75;;;12.60;99.90;;;;;;5065831;28;20029;-50
2022/10/30 00:41:18;;;;;;;219.50;64.95;;;12.50;99.90;;;;;;5062869;28;20037;-49
2022/10/30 00:43:44;;;;;;;284.83;60.40;;;12.30;99.90;;;;;;5066953;28;20029;-48
2022/10/30 00:46:18;;;;;;;152.30;49.67;;;11.80;99.90;;;;;;5068314;28;20035;-52
2022/10/30 00:48:53;;;;;;;103.95;44.03;;;11.50;99.90;;;;;;5056989;28;20098;-51
2022/10/30 00:51:19;;;;;;;118.22;45.75;;;10.80;99.90;;;;;;5059799;28;20076;-51
2022/10/30 00:53:47;;;;;;;174.82;51.03;;;10.80;99.90;;;;;;5066396;28;20329;-49
2022/10/30 00:56:17;;;;;;;216.02;60.63;;;10.70;99.90;;;;;;5054686;28;20107;-49
2022/10/30 00:58:48;;;;;;;212.73;59.70;;;10.80;99.90;;;;;;5056316;28;20492;-49
2022/10/30 01:01:18;;;;;;;128.00;56.27;;;10.90;99.90;;;;;;5064794;28;20073;-49
2022/10/30 01:03:46;;;;;;;144.18;54.03;;;11.10;99.90;;;;;;5066247;28;20284;-49
2022/10/30 01:06:15;;;;;;;155.85;55.45;;;11.40;99.90;;;;;;5064941;28;20024;-51
2022/10/30 01:08:41;;;;;;;246.70;58.90;;;11.70;99.90;;;;;;5066059;28;20041;-49
2022/10/30 01:11:11;;;;;;;175.70;54.42;;;11.90;99.90;;;;;;5064306;28;20103;-50
2022/10/30 01:13:38;;;;;;;129.40;53.97;;;12.10;99.90;;;;;;5051891;28;20047;-51
2022/10/30 01:16:19;;;;;;;136.27;51.63;;;11.90;99.90;;;;;;5068310;28;20036;-51
2022/10/30 01:19:03;;;;;;;122.57;54.15;;;;;;;;;;5071869;28;20041;-51
2022/10/30 01:21:49;;;;;;;119.13;48.55;;;10.70;99.90;;;;;;5060318;28;20037;-48
2022/10/30 01:24:44;;;;;;;155.73;50.35;;;10.40;99.90;;;;;;5055703;28;20043;-49
2022/10/30 01:27:43;;;;;;;164.73;53.08;;;10.20;99.90;;;;;;5066025;28;20044;-52
2022/10/30 01:30:09;;;;;;;170.90;56.08;;;10.20;99.90;;;;;;5096938;28;20422;-51
2022/10/30 01:32:44;;;;;;;136.55;51.90;;;10.30;99.90;;;;;;5069121;28;20032;-49
2022/10/30 02:06:28;;;;;;;105.30;49.20;;;11.60;99.90;;;;;;5024322;28;20574;-49
2022/10/30 02:08:57;;;;;;;116.70;48.03;;;11.70;99.90;;;;;;5059146;28;20072;-49
2022/10/30 02:11:25;;;;;;;99.72;51.05;;;11.80;99.90;;;;;;5007743;28;20048;-51
2022/10/30 02:13:54;;;;;;;103.80;50.25;;;11.90;99.90;;;;;;5009500;28;20511;-48
2022/10/30 02:16:20;;;;;;;106.05;53.88;;;12.00;99.90;;;;;;5006473;28;20050;-50
2022/10/30 02:18:46;;;;;;;146.20;58.70;;;11.90;99.90;;;;;;5019091;28;20021;-50
2022/10/30 02:21:12;;;;;;;126.20;57.05;;;11.70;99.90;;;;;;5018445;28;20038;-51
2022/10/30 02:23:38;;;;;;;133.57;54.25;;;11.50;99.90;;;;;;4980949;28;20033;-48
2022/10/30 02:26:04;;;;;;;143.57;59.08;;;11.50;99.90;;;;;;5016538;28;20547;-51
2022/10/30 02:28:29;;;;;;;144.32;59.60;;;11.00;99.90;;;;;;5013837;28;20038;-47
2022/10/30 02:30:55;;;;;;;142.60;57.45;;;11.20;99.90;;;;;;5009422;28;20040;-50
2022/10/30 02:33:23;;;;;;;139.60;54.40;;;11.40;99.90;;;;;;5015585;28;20025;-48
2022/10/30 02:35:49;;;;;;;213.68;58.53;;;11.60;99.90;;;;;;4967952;28;20076;-48
2022/10/30 02:38:15;;;;;;;123.47;50.22;;;11.70;99.90;;;;;;5012757;28;20041;-49
2022/10/30 02:40:41;;;;;;;108.90;48.95;;;11.70;99.90;;;;;;4981253;28;20184;-50
2022/10/30 02:43:07;;;;;;;128.25;50.42;;;11.70;99.90;;;;;;5061126;28;20068;-51
2022/10/30 02:45:32;;;;;;;122.88;47.55;;;11.70;99.90;;;;;;5065717;28;20032;-50
2022/10/30 02:47:59;;;;;;;190.85;47.85;;;11.60;99.90;;;;;;5060674;28;20106;-49
2022/10/30 02:50:25;;;;;;;127.68;44.00;;;11.80;99.90;;;;;;5065251;28;20041;-49
2022/10/30 02:52:51;;;;;;;75.43;39.78;;;11.80;99.90;;;;;;5067870;28;20024;-50
2022/10/30 02:55:17;;;;;;;78.38;40.08;;;11.90;99.90;;;;;;5048893;28;20036;-50
2022/10/30 02:57:43;;;;;;;77.45;39.70;;;11.90;99.90;;;;;;5065852;28;20464;-50
2022/10/30 03:00:10;;;;;;;106.65;42.58;;;12.00;99.90;;;;;;5069717;28;20108;-50
2022/10/30 03:02:35;;;;;;;107.10;43.20;;;11.90;99.90;;;;;;5038926;28;20037;-47
2022/10/30 03:05:01;;;;;;;80.35;39.13;;;11.80;99.90;;;;;;5067398;28;20032;-50
2022/10/30 03:07:27;;;;;;;92.32;41.53;;;11.70;99.90;;;;;;5067747;28;20083;-50
2022/10/30 03:09:53;;;;;;;80.43;42.42;;;11.80;99.90;;;;;;5064433;28;20385;-50
2022/10/30 03:12:20;;;;;;;69.95;39.65;;;11.80;99.90;;;;;;5062489;28;20368;-50
2022/10/30 03:14:45;;;;;;;68.47;39.05;;;11.90;99.90;;;;;;5064675;28;20483;-50
2022/10/30 03:17:11;;;;;;;99.43;40.13;;;11.90;99.90;;;;;;5071474;28;20029;-48
2022/10/30 03:19:37;;;;;;;108.22;40.05;;;11.90;99.90;;;;;;5060014;28;20099;-47
2022/10/30 03:22:03;;;;;;;96.45;40.97;;;12.00;99.90;;;;;;5057284;28;20043;-49
2022/10/30 03:24:28;;;;;;;74.55;42.17;;;12.00;99.90;;;;;;5060105;28;20044;-49
2022/10/30 03:26:54;;;;;;;119.65;42.25;;;12.00;99.90;;;;;;5060636;28;20464;-51
2022/10/30 03:29:20;;;;;;;79.20;43.45;;;12.10;99.90;;;;;;5060430;28;20072;-50
2022/10/30 03:31:45;;;;;;;104.88;44.10;;;12.00;99.90;;;;;;5063652;28;20494;-51
2022/10/30 03:34:11;;;;;;;97.53;43.03;;;11.80;99.90;;;;;;5062930;28;20082;-48
2022/10/30 03:36:37;;;;;;;90.45;41.58;;;11.80;99.90;;;;;;5061195;28;20021;-49
2022/10/30 03:39:03;;;;;;;133.07;42.10;;;11.80;99.90;;;;;;5063725;28;20033;-52
2022/10/30 03:41:29;;;;;;;192.40;44.85;;;11.80;99.90;;;;;;5060518;28;20375;-51
2022/10/30 03:43:55;;;;;;;154.73;43.10;;;12.00;99.90;;;;;;5064362;28;20028;-50
2022/10/30 03:46:21;;;;;;;171.68;50.05;;;12.10;99.90;;;;;;5061275;28;20081;-49
2022/10/30 03:48:49;;;;;;;178.93;48.60;;;12.10;99.90;;;;;;5060909;28;20052;-51
2022/10/30 03:51:16;;;;;;;129.55;46.63;;;12.20;99.90;;;;;;5063944;28;20110;-50
2022/10/30 03:53:41;;;;;;;103.82;44.13;;;12.20;99.90;;;;;;5062803;28;20029;-48
2022/10/30 03:56:09;;;;;;;131.65;44.20;;;12.20;99.90;;;;;;5057496;28;20032;-51
2022/10/30 03:58:34;;;;;;;103.97;42.92;;;12.20;99.90;;;;;;5062159;28;20060;-50
2022/10/30 04:01:05;;;;;;;96.55;43.75;;;11.90;99.90;;;;;;5063192;28;20055;-47
2022/10/30 04:03:31;;;;;;;97.53;45.85;;;11.50;99.90;;;;;;5057152;28;20033;-50
2022/10/30 04:05:57;;;;;;;141.88;49.67;;;11.40;99.90;;;;;;5060792;28;20029;-48
2022/10/30 04:08:23;;;;;;;100.80;48.42;;;11.40;99.90;;;;;;5060833;28;20388;-49
2022/10/30 04:10:48;;;;;;;214.75;49.95;;;11.50;99.90;;;;;;5057642;28;20025;-48
2022/10/30 04:13:16;;;;;;;199.07;49.22;;;11.60;99.90;;;;;;5058732;28;20044;-49
2022/10/30 04:15:42;;;;;;;180.77;50.25;;;11.80;99.90;;;;;;5034350;28;20048;-49
2022/10/30 04:18:11;;;;;;;261.52;47.03;;;11.70;99.90;;;;;;5065261;28;20476;-48
2022/10/30 04:20:37;;;;;;;267.60;49.58;;;11.80;99.90;;;;;;5065791;28;20070;-49
2022/10/30 04:23:05;;;;;;;181.32;44.38;;;12.00;99.90;;;;;;5084604;28;20041;-49
2022/10/30 04:25:33;;;;;;;235.18;42.85;;;12.00;99.90;;;;;;5071150;28;20066;-50
2022/10/30 04:27:59;;;;;;;315.70;48.53;;;12.10;99.90;;;;;;5066414;28;20052;-50
2022/10/30 04:30:32;;;;;;;210.45;41.35;;;12.10;99.90;;;;;;5065805;28;20025;-51
2022/10/30 04:32:58;;;;;;;234.20;45.05;;;12.10;99.90;;;;;;5057708;28;20033;-48
2022/10/30 04:35:27;;;;;;;177.45;41.33;;;12.00;99.90;;;;;;5065533;28;20021;-49
2022/10/30 04:37:54;;;;;;;256.25;42.10;;;12.10;99.90;;;;;;5066710;28;20024;-48
2022/10/30 04:40:21;;;;;;;194.35;39.60;;;12.20;99.90;;;;;;5063027;28;20037;-49
2022/10/30 04:42:47;;;;;;;167.95;37.70;;;12.30;99.90;;;;;;5068249;28;20040;-48
2022/10/30 04:45:13;;;;;;;237.43;40.50;;;12.30;99.90;;;;;;5071825;28;20494;-50
2022/10/30 04:47:39;;;;;;;158.82;37.53;;;12.30;99.90;;;;;;5065302;28;20024;-47
2022/10/30 04:50:05;;;;;;;170.65;36.50;;;12.30;99.90;;;;;;5059812;28;20475;-51
2022/10/30 04:52:31;;;;;;;94.90;33.17;;;12.30;99.90;;;;;;5039816;28;20028;-51
2022/10/30 04:54:57;;;;;;;132.73;33.10;;;12.30;99.90;;;;;;5064982;28;20025;-49
2022/10/30 04:57:22;;;;;;;140.20;34.47;;;12.30;99.90;;;;;;5065560;28;20037;-51
2022/10/30 04:59:48;;;;;;;183.50;54.28;;;12.20;99.90;;;;;;5068166;28;20071;-51
2022/10/30 05:02:14;;;;;;;92.50;41.55;;;12.30;99.90;;;;;;5067004;28;20040;-48
2022/10/30 05:04:40;;;;;;;222.82;37.78;;;12.30;99.90;;;;;;5036044;28;20036;-49
2022/10/30 05:07:06;;;;;;;113.68;34.83;;;12.30;99.90;;;;;;5052064;28;20040;-51
2022/10/30 05:09:32;;;;;;;133.38;37.03;;;12.30;99.90;;;;;;5093736;28;20047;-51
2022/10/30 05:11:58;;;;;;;97.03;35.92;;;12.40;99.90;;;;;;5048807;28;20036;-48
2022/10/30 05:14:23;;;;;;;147.23;42.65;;;12.60;99.90;;;;;;5063289;28;20032;-47
2022/10/30 05:16:49;;;;;;;98.93;38.08;;;12.40;99.90;;;;;;5066056;28;20035;-48
2022/10/30 05:19:15;;;;;;;86.57;32.90;;;12.40;99.90;;;;;;5064282;28;20024;-48
2022/10/30 05:21:40;;;;;;;64.57;34.17;;;12.40;99.90;;;;;;5065990;28;20028;-49
2022/10/30 05:24:07;;;;;;;155.25;97.18;;;12.50;99.90;;;;;;5066421;28;20032;-48
2022/10/30 05:26:32;;;;;;;51.42;34.88;;;12.40;99.90;;;;;;5062930;28;20127;-50
2022/10/30 05:28:58;;;;;;;44.70;28.52;;;11.10;99.90;;;;;;5057312;28;20582;-52
2022/10/30 05:31:24;;;;;;;40.35;34.47;;;10.60;99.90;;;;;;5051551;28;20033;-51
2022/10/30 05:33:49;;;;;;;58.10;47.10;;;10.40;99.90;;;;;;5070233;28;20064;-49
2022/10/30 05:36:15;;;;;;;107.93;82.57;;;10.70;99.90;;;;;;5060758;28;20029;-48
2022/10/30 05:38:41;;;;;;;105.22;80.22;;;10.70;99.90;;;;;;5067947;28;20024;-50
2022/10/30 05:41:07;;;;;;;90.50;71.47;;;11.10;99.90;;;;;;5062594;28;20028;-49
2022/10/30 05:43:32;;;;;;;67.47;52.75;;;11.60;99.90;;;;;;5064514;28;20032;-48
2022/10/30 05:45:58;;;;;;;42.45;32.97;;;11.30;99.90;;;;;;5050815;28;20068;-52
2022/10/30 05:48:24;;;;;;;41.53;33.35;;;11.50;99.90;;;;;;5056057;28;20025;-50
2022/10/30 05:50:49;;;;;;;38.72;31.40;;;11.60;99.90;;;;;;5057834;28;20058;-51
2022/10/30 05:53:15;;;;;;;37.28;29.58;;;12.00;99.90;;;;;;5054193;28;20024;-48
2022/10/30 05:55:41;;;;;;;43.10;30.92;;;11.80;99.90;;;;;;5055945;28;20112;-50
2022/10/30 05:58:06;;;;;;;37.83;30.42;;;11.80;99.90;;;;;;5052133;28;20041;-49
2022/10/30 06:00:34;;;;;;;38.05;28.73;;;12.00;99.90;;;;;;5052426;28;20033;-50
2022/10/30 06:03:01;;;;;;;36.80;27.65;;;12.20;99.90;;;;;;5056428;28;20048;-48
2022/10/30 06:05:28;;;;;;;34.03;27.52;;;12.00;99.90;;;;;;5055145;28;20020;-47
2022/10/30 06:07:58;;;;;;;34.80;27.48;;;11.80;99.90;;;;;;5029843;28;20053;-49
2022/10/30 06:10:24;;;;;;;32.78;28.90;;;11.70;99.90;;;;;;5051967;28;20400;-49
2022/10/30 06:12:53;;;;;;;32.65;27.50;;;11.80;99.90;;;;;;5054201;28;20033;-49
2022/10/30 06:15:19;;;;;;;28.60;25.48;;;12.00;99.90;;;;;;5053624;28;20049;-52
2022/10/30 06:17:45;;;;;;;27.55;24.60;;;11.90;99.90;;;;;;5053893;28;20087;-50
2022/10/30 06:20:11;;;;;;;27.50;24.55;;;12.30;99.90;;;;;;5052921;28;20424;-50
2022/10/30 06:22:37;;;;;;;28.70;25.65;;;12.50;99.90;;;;;;5053488;28;20035;-50
2022/10/30 06:25:03;;;;;;;31.08;26.10;;;12.00;99.90;;;;;;5052233;28;20033;-49
2022/10/30 06:27:28;;;;;;;29.33;25.95;;;12.20;99.90;;;;;;5052556;28;20021;-49
2022/10/30 06:29:54;;;;;;;35.97;30.35;;;12.30;99.90;;;;;;5060286;28;20021;-51
2022/10/30 06:32:21;;;;;;;40.38;33.55;;;12.50;99.90;;;;;;5066757;28;20474;-50
2022/10/30 06:34:46;;;;;;;76.65;36.28;;;12.60;99.90;;;;;;5060950;28;20776;-49
2022/10/30 06:37:12;;;;;;;56.53;37.78;;;12.80;99.90;;;;;;5066323;28;20033;-50
2022/10/30 06:39:38;;;;;;;64.30;42.92;;;12.80;99.90;;;;;;5042556;28;20033;-51
2022/10/30 06:42:04;;;;;;;56.75;37.30;;;12.90;99.90;;;;;;5058502;28;20535;-51
2022/10/30 06:58:49;;;;;;;66.35;33.13;;;13.90;99.90;;;;;;5105779;27;20879;-50
2022/10/30 07:01:14;;;;;;;65.53;41.95;;;13.70;99.90;;;;;;5093268;28;20090;-51
2022/10/30 07:03:40;;;;;;;51.67;36.53;;;13.80;99.90;;;;;;5089058;28;20032;-50
2022/10/30 07:06:06;;;;;;;53.05;36.97;;;13.60;99.90;;;;;;5107733;28;20019;-51
2022/10/30 07:08:32;;;;;;;78.45;40.90;;;13.50;99.90;;;;;;5118215;28;20032;-50
2022/10/30 07:10:57;;;;;;;79.32;45.83;;;13.40;99.90;;;;;;5098171;28;20042;-49
2022/10/30 07:13:23;;;;;;;68.90;49.15;;;13.40;99.90;;;;;;5076507;28;20131;-50
2022/10/30 07:15:49;;;;;;;69.75;46.78;;;13.40;99.90;;;;;;5074615;28;20538;-48
2022/10/30 07:18:15;;;;;;;69.50;41.50;;;13.50;99.90;;;;;;5082773;28;20420;-51
2022/10/30 07:20:41;;;;;;;71.15;38.05;;;;;;;;;;5086555;28;20067;-49
2022/10/30 07:23:07;;;;;;;71.20;38.00;;;13.00;99.90;;;;;;5088294;28;20081;-50
2022/10/30 07:25:33;;;;;;;132.13;42.03;;;13.30;99.90;;;;;;5083616;28;20112;-51
2022/10/30 07:27:59;;;;;;;85.35;43.30;;;13.40;99.90;;;;;;5085213;28;20463;-50
2022/10/30 07:30:26;;;;;;;92.60;50.03;;;13.70;99.90;;;;;;5084020;28;20387;-49
2022/10/30 07:33:00;;;;;;;87.07;53.08;;;14.00;99.90;;;;;;5084301;28;20116;-52
2022/10/30 07:35:26;;;;;;;132.52;51.97;;;14.00;99.90;;;;;;5082891;28;20070;-51
2022/10/30 07:37:53;;;;;;;75.68;52.30;;;13.40;99.90;;;;;;5087111;28;20077;-50
2022/10/30 07:40:19;;;;;;;83.15;51.75;;;13.50;99.90;;;;;;5080834;28;20112;-50
2022/10/30 07:42:45;;;;;;;115.35;61.63;;;13.60;99.90;;;;;;5081546;28;20452;-50
2022/10/30 07:45:11;;;;;;;134.80;58.00;;;14.00;99.90;;;;;;5087348;28;20036;-51
2022/10/30 07:47:40;;;;;;;88.43;48.95;;;14.00;99.90;;;;;;5101208;28;20047;-51
2022/10/30 07:50:06;;;;;;;80.93;43.55;;;14.20;99.90;;;;;;5080728;28;20109;-51
2022/10/30 07:52:32;;;;;;;79.75;42.83;;;14.10;99.90;;;;;;5083196;28;20033;-53
2022/10/30 07:54:58;;;;;;;56.28;41.15;;;14.20;99.90;;;;;;5084375;28;21656;-52
2022/10/30 07:57:24;;;;;;;69.35;42.50;;;14.30;99.90;;;;;;5099464;28;20482;-49
2022/10/30 07:59:50;;;;;;;66.80;44.47;;;14.30;99.90;;;;;;5080049;28;20032;-48
2022/10/30 08:02:15;;;;;;;62.22;45.15;;;14.10;99.90;;;;;;5073413;28;20024;-50
2022/10/30 08:04:41;;;;;;;68.60;44.03;;;13.90;99.90;;;;;;5052083;28;20121;-50
2022/10/30 08:07:07;;;;;;;60.20;40.95;;;14.10;99.90;;;;;;5077936;28;20032;-51
2022/10/30 08:09:33;;;;;;;64.15;44.42;;;14.30;99.90;;;;;;5076279;28;20028;-51
2022/10/30 08:11:58;;;;;;;61.33;41.78;;;14.20;99.90;;;;;;5086049;28;20040;-51
2022/10/30 08:14:24;;;;;;;63.63;42.75;;;14.20;99.90;;;;;;5075790;28;20028;-51
2022/10/30 08:16:50;;;;;;;78.07;50.85;;;14.30;99.90;;;;;;5058524;28;20035;-52
2022/10/30 08:19:16;;;;;;;79.65;52.83;;;14.10;99.90;;;;;;5072521;28;20040;-51
2022/10/30 08:21:42;;;;;;;70.88;50.63;;;14.20;99.90;;;;;;5089700;28;20044;-51
2022/10/30 08:24:08;;;;;;;74.60;52.22;;;14.40;99.90;;;;;;5053297;28;20042;-52
2022/10/30 08:26:34;;;;;;;73.75;52.58;;;14.60;99.90;;;;;;5078982;28;20127;-51
2022/10/30 08:29:00;;;;;;;82.45;56.85;;;;;;;;;;5072618;28;20101;-51
2022/10/30 08:31:26;;;;;;;77.30;52.03;;;15.00;99.90;;;;;;5067537;28;20097;-51
2022/10/30 08:33:51;;;;;;;72.68;50.75;;;15.30;99.90;;;;;;5090292;28;20032;-51
2022/10/30 08:36:17;;;;;;;69.43;50.25;;;15.30;99.90;;;;;;5049378;28;20037;-52
2022/10/30 08:38:43;;;;;;;73.22;52.35;;;15.30;99.90;;;;;;5080030;28;20033;-52
2022/10/30 08:41:09;;;;;;;71.38;49.17;;;;;;;;;;5069567;28;20149;-52
2022/10/30 08:43:35;;;;;;;75.55;49.20;;;15.60;99.90;;;;;;5081093;28;20033;-52
2022/10/30 08:46:01;;;;;;;71.75;49.40;;;16.00;99.90;;;;;;5075500;28;20051;-51
2022/10/30 08:48:26;;;;;;;71.45;51.00;;;16.20;99.90;;;;;;5071332;28;20492;-51
2022/10/30 08:50:53;;;;;;;67.22;49.45;;;;;;;;;;5067309;28;20040;-51
2022/10/30 08:53:19;;;;;;;57.63;43.80;;;17.50;99.90;;;;;;5072284;28;20032;-55
2022/10/30 08:55:45;;;;;;;57.30;43.22;;;;;;;;;;5066802;28;20033;-54
2022/10/30 08:58:11;;;;;;;55.33;41.40;;;;;;;;;;5075527;28;20395;-51
2022/10/30 09:00:37;;;;;;;54.00;40.95;;;;;;;;;;5072484;28;20033;-54
2022/10/30 09:03:03;;;;;;;47.17;38.40;;;;;;;;;;5070930;28;20027;-54
2022/10/30 09:05:30;;;;;;;45.78;35.90;;;;;;;;;;5070342;28;20036;-53
2022/10/30 09:07:57;;;;;;;41.30;34.63;;;;;;;;;;5070572;28;20033;-52
2022/10/30 09:10:23;;;;;;;47.53;35.75;;;21.40;99.90;;;;;;5068875;28;20541;-51
2022/10/30 09:12:57;;;;;;;44.28;36.72;;;21.00;99.90;;;;;;5061551;28;20031;-52
2022/10/30 09:15:24;;;;;;;42.63;35.85;;;21.00;99.90;;;;;;5073152;28;20072;-54
2022/10/30 09:18:01;;;;;;;40.63;34.78;;;20.60;99.90;;;;;;5071474;28;20033;-54
2022/10/30 09:20:27;;;;;;;39.30;33.45;;;;;;;;;;5068709;28;20514;-54
2022/10/30 09:22:53;;;;;;;62.47;55.33;;;22.30;99.90;;;;;;5050829;28;20042;-52
2022/10/30 09:25:19;;;;;;;41.70;33.13;;;21.90;99.90;;;;;;5071050;28;20035;-53
2022/10/30 09:27:45;;;;;;;35.63;31.23;;;22.10;99.90;;;;;;5055004;28;20044;-52
2022/10/30 09:30:12;;;;;;;40.33;34.55;;;21.90;99.90;;;;;;5070064;28;20490;-51
2022/10/30 09:32:38;;;;;;;41.80;32.92;;;;;;;;;;5073339;28;20032;-54
2022/10/30 09:35:04;;;;;;;43.30;34.65;;;24.50;99.90;;;;;;5072889;28;20108;-52
2022/10/30 09:37:33;;;;;;;35.80;31.77;;;24.30;99.90;;;;;;5004147;28;20047;-54
2022/10/30 09:39:59;;;;;;;38.15;34.05;;;;;;;;;;5072132;28;20081;-53
2022/10/30 09:42:55;;;;;;;35.78;31.98;;;;;;;;;;5077971;28;20029;-52
2022/10/30 09:45:40;;;;;;;34.63;30.90;;;;;;;;;;5006851;28;20054;-51
2022/10/30 09:48:13;;;;;;;32.83;29.38;;;26.80;99.90;;;;;;5007141;28;20503;-50
2022/10/30 09:51:03;;;;;;;31.58;28.48;;;27.60;99.90;;;;;;4993048;28;20561;-54
2022/10/30 09:53:46;;;;;;;30.90;26.60;;;;;;;;;;5008916;28;20029;-54
2022/10/30 09:56:18;;;;;;;32.40;28.92;;;;;;;;;;5010965;28;20053;-52
2022/10/30 09:58:44;;;;;;;32.15;28.48;;;;;;;;;;4982625;28;20165;-54
2022/10/30 10:01:20;;;;;;;29.95;26.95;;;28.50;97.40;;;;;;5005732;28;20088;-53
2022/10/30 10:03:48;;;;;;;31.15;27.90;;;;;;;;;;5008500;28;20512;-53
2022/10/30 10:06:17;;;;;;;29.63;26.58;;;;;;;;;;4984877;28;20046;-53
2022/10/30 10:08:48;;;;;;;31.13;27.90;;;28.90;95.90;;;;;;5006271;28;20437;-53
2022/10/30 10:11:20;;;;;;;29.38;26.35;;;;;;;;;;4961387;28;20041;-52
2022/10/30 10:14:19;;;;;;;27.95;25.05;;;29.10;99.90;;;;;;5003027;28;20037;-53
2022/10/30 10:16:49;;;;;;;29.42;26.25;;;;;;;;;;5008489;28;20044;-53
2022/10/30 10:19:17;;;;;;;27.38;24.70;;;;;;;;;;5010382;28;20037;-50
2022/10/30 10:21:55;;;;;;;30.08;26.75;;;29.10;96.20;;;;;;4994968;28;20044;-52
2022/10/30 10:24:26;;;;;;;27.00;24.25;;;28.60;94.90;;;;;;5070024;28;20064;-53
2022/10/30 10:26:55;;;;;;;27.80;25.00;;;29.30;94.90;;;;;;5073841;28;20044;-54
2022/10/30 10:29:31;;;;;;;32.65;24.58;;;30.20;94.50;;;;;;5071347;28;20422;-51
2022/10/30 10:32:31;;;;;;;27.10;24.27;;;30.10;94.40;;;;;;5063363;28;20464;-54
2022/10/30 10:35:09;;;;;;;28.70;25.73;;;29.80;93.40;;;;;;5067787;28;20456;-51
2022/10/30 10:38:02;;;;;;;31.13;27.80;;;29.00;93.60;;;;;;5071701;28;20382;-52
2022/10/30 10:40:53;;;;;;;29.63;26.83;;;28.40;94.50;;;;;;5070252;28;20031;-54
2022/10/30 10:43:25;;;;;;;28.95;25.83;;;29.00;94.50;;;;;;5057543;28;20041;-54
2022/10/30 10:46:03;;;;;;;29.17;25.73;;;28.90;94.60;;;;;;5068992;28;20020;-52
2022/10/30 10:48:34;;;;;;;28.50;25.65;;;29.20;99.90;;;;;;5070526;28;20102;-52
2022/10/30 10:51:00;;;;;;;;;;;;;;;;;;5069133;28;20028;-50
2022/10/30 10:53:44;;;;;;;27.23;23.65;;;29.60;99.90;;;;;;5069533;28;19913;-49
2022/10/30 10:56:11;;;;;;;28.38;25.55;;;;;;;;;;5062935;28;20040;-53
2022/10/30 10:58:43;;;;;;;26.40;23.60;;;29.90;93.70;;;;;;5064828;28;20045;-49
2022/10/30 11:01:12;;;;;;;;;;;29.80;93.30;;;;;;5071613;28;20443;-48
2022/10/30 11:03:46;;;;;;;27.45;24.33;;;29.80;93.20;;;;;;5069794;28;19908;-51
2022/10/30 11:06:49;;;;;;;24.95;22.35;;;29.70;93.10;;;;;;5070526;28;20139;-52
2022/10/30 11:09:20;;;;;;;28.25;24.00;;;28.60;92.90;;;;;;5008517;28;20037;-52
2022/10/30 11:11:52;;;;;;;26.73;23.67;;;28.50;93.80;;;;;;5008540;28;20037;-54
2022/10/30 11:14:18;;;;;;;;;;;27.90;93.80;;;;;;5005344;28;20537;-54
2022/10/30 11:17:00;;;;;;;29.65;22.70;;;28.30;94.50;;;;;;5010099;28;19906;-49
2022/10/30 11:19:29;;;;;;;26.17;23.42;;;29.00;93.40;;;;;;4991081;28;20120;-51
2022/10/30 11:21:56;;;;;;;25.80;23.02;;;29.40;93.40;;;;;;4999442;28;20564;-50
2022/10/30 11:24:35;;;;;;;22.52;18.73;;;29.20;92.80;;;;;;5005051;28;20042;-55
2022/10/30 11:27:22;;;;;;;21.83;19.52;;;29.70;92.40;;;;;;5005684;28;20046;-51
2022/10/30 11:29:58;;;;;;;23.42;20.92;;;29.30;92.40;;;;;;5005683;28;20038;-54
2022/10/30 11:32:29;;;;;;;24.75;20.05;;;29.40;92.30;;;;;;4973691;28;20042;-52
2022/10/30 11:35:07;;;;;;;23.50;21.00;;;28.10;93.10;;;;;;5011179;28;20056;-51
2022/10/30 11:37:38;;;;;;;24.65;22.13;;;28.10;93.20;;;;;;5005448;28;20034;-52
2022/10/30 11:40:18;;;;;;;22.43;20.03;;;28.00;93.30;;;;;;5009697;28;20034;-52
2022/10/30 11:43:04;;;;;;;24.20;21.70;;;28.30;93.40;;;;;;5031363;28;20426;-54
2022/10/30 11:45:36;;;;;;;24.15;21.42;;;28.30;93.40;;;;;;5076577;28;20093;-52
2022/10/30 11:48:10;;;;;;;27.83;20.50;;;28.60;94.10;;;;;;5079510;28;20123;-52
2022/10/30 11:50:37;;;;;;;24.08;20.73;;;28.90;93.00;;;;;;5070401;28;20028;-50
2022/10/30 11:53:11;;;;;;;24.83;22.23;;;28.70;93.60;;;;;;5081088;28;20020;-50
2022/10/30 11:55:40;;;;;;;25.27;22.67;;;28.40;93.00;;;;;;5073408;28;20028;-52
2022/10/30 11:58:10;;;;;;;24.05;20.70;;;27.80;93.40;;;;;;5072571;28;20052;-54
2022/10/30 12:00:39;;;;;;;22.92;20.30;;;27.70;93.50;;;;;;5071690;28;20033;-50
2022/10/30 12:03:27;;;;;;;22.50;19.80;;;28.00;93.60;;;;;;5075171;28;20475;-52
2022/10/30 12:06:10;;;;;;;23.17;20.73;;;27.60;93.20;;;;;;5067335;28;20123;-54
2022/10/30 12:08:36;;;;;;;22.20;19.90;;;28.00;93.70;;;;;;5065812;28;20041;-52
2022/10/30 12:11:04;;;;;;;22.55;19.95;;;28.10;93.70;;;;;;5073673;28;20468;-51
2022/10/30 12:13:38;;;;;;;23.33;19.70;;;28.00;93.30;;;;;;5065510;28;20028;-50
2022/10/30 12:16:14;;;;;;;20.73;18.33;;;28.30;93.50;;;;;;5065498;28;20459;-51
2022/10/30 12:18:41;;;;;;;22.75;20.02;;;28.30;92.30;;;;;;5052422;28;20028;-50
2022/10/30 12:21:07;;;;;;;21.42;18.95;;;28.10;93.00;;;;;;5084415;28;20052;-51
2022/10/30 12:23:34;;;;;;;26.23;23.58;;;27.70;92.90;;;;;;5081423;28;20060;-52
2022/10/30 12:26:11;;;;;;;24.52;21.15;;;27.70;93.20;;;;;;5088063;28;20501;-51
2022/10/30 12:28:38;;;;;;;28.90;25.05;;;27.80;93.40;;;;;;5082464;28;20032;-52
2022/10/30 12:31:24;;;;;;;28.05;22.27;;;27.70;93.70;;;;;;5080110;28;20115;-55
2022/10/30 12:33:56;;;;;;;28.05;22.38;;;27.70;93.40;;;;;;5078845;28;20386;-51
2022/10/30 12:36:28;;;;;;;26.48;23.88;;;27.60;93.70;;;;;;5084436;28;20031;-50
2022/10/30 12:39:15;;;;;;;34.33;22.83;;;27.50;93.40;;;;;;5083018;28;20032;-51
2022/10/30 12:41:59;;;;;;;26.05;22.35;;;27.70;93.10;;;;;;5077782;28;20097;-52
2022/10/30 12:44:31;;;;;;;24.83;21.52;;;27.60;93.30;;;;;;5084406;28;20043;-52
2022/10/30 12:47:15;;;;;;;25.40;22.30;;;27.50;93.90;;;;;;5074496;28;20119;-52
2022/10/30 12:49:57;;;;;;;26.00;22.92;;;27.40;93.70;;;;;;5074290;28;20044;-55
2022/10/30 12:52:38;;;;;;;25.88;22.60;;;27.00;94.00;;;;;;5072808;28;20047;-52
2022/10/30 12:55:21;;;;;;;28.13;22.90;;;27.20;94.30;;;;;;5073312;28;20024;-55
2022/10/30 12:58:07;;;;;;;29.45;24.77;;;27.00;94.00;;;;;;5072270;28;20052;-54
2022/10/30 13:00:56;;;;;;;23.55;20.20;;;26.50;94.30;;;;;;5044392;28;20046;-54
2022/10/30 13:03:38;;;;;;;27.23;21.25;;;26.50;94.50;;;;;;5076587;28;20491;-54
2022/10/30 13:06:19;;;;;;;23.70;21.15;;;26.10;94.00;;;;;;5076965;28;20012;-54
2022/10/30 13:09:22;;;;;;;30.27;23.00;;;25.80;94.20;;;;;;5076862;28;20093;-53
2022/10/30 13:12:02;;;;;;;25.30;21.83;;;25.60;94.90;;;;;;5021483;28;20275;-53
2022/10/30 13:14:54;;;;;;;26.10;23.30;;;25.90;94.90;;;;;;5017479;28;20046;-51
2022/10/30 13:17:20;;;;;;;29.92;24.23;;;25.60;95.10;;;;;;5021443;28;20500;-50
2022/10/30 13:19:46;;;;;;;28.55;23.70;;;25.90;95.30;;;;;;5017897;28;20037;-54
2022/10/30 13:22:35;;;;;;;31.13;26.60;;;25.80;95.00;;;;;;5017867;28;20036;-52
2022/10/30 13:25:20;;;;;;;29.30;25.20;;;25.70;95.40;;;;;;5006615;28;20042;-53
2022/10/30 13:28:19;;;;;;;28.33;24.85;;;25.60;95.10;;;;;;5006968;28;20115;-53
2022/10/30 13:31:00;;;;;;;29.58;24.20;;;25.60;95.10;;;;;;5007211;28;20022;-53
2022/10/30 13:33:38;;;;;;;31.13;23.30;;;25.80;94.90;;;;;;5009870;28;20616;-51